Home PIREPS Pireps

Flight BEL9966

  • Submitted By: AndrĂ© Vincent
  • Departure Airport: Entebbe Airport (HUEN)
  • Arrival Airport: Bruxelles National (EBBR)
  • Aircraft: A330-223 (OO-SFY)
  • Flight Time: 07.50
  • Date Submitted: 07/08/2016
  • Status: Accepted
Flight Details
Gross Revenue:
(218 load / € 843.00 per unit
€ 183,774.00
Fuel Cost:
(93881 fuel used @ 5.1 / unit)
€ 478,793.10

Additional Log Information:

View Log

Aircraft Used in flight is Boeing 747-400
08:27 Brakes are On
08:27 Brakes are Released
08:33 Landing Gear Up @ 204 Knots and 3790 Feet
08:33 You Took off @ 213 Knots and Flaps at Position 2
Departure Weather
HUEN 070600Z 00000KT 7000 TS/N SCT020 FEW022CB BKN110 22/19 Q1020rn
08:34 You are Airborne and your Navigation Lights are off
08:36 Above FL100 you need to switch of the landing lights
16:11 Landing Gear Down @ 187 Knots and 1990 Feet
16:14 You Landed @ 167 Knots and with -900 Vertical Speed
Arrival Weather
EBBR 071350Z 22011KT 190V250 9999 BKN043 24/15 Q1025 NOSIGrn
16:14 Your Landing was very hard
16:17 Brakes are On
16:17 Brussels Bel-Track1.0.1.2

Route Map

Corporate About Us Our Team Vacancies Information Fleet Route Network Rules and Regulations Operations Flight Schedules Event Center Tours Partners IVAO Vatsim Acars dev FSCB

fb Users Online No pilots online!
0 Pilot(s) and 106 Guest(s) Online
CMS by phpVMS - Design by Crazycreatives.com - Copyright © 2018 - Brussels Airlines Virtual